createdAt,value
2023-05-20T13:08:48.652Z,35.08
2023-05-20T13:11:16.766Z,35.27
2023-05-20T13:13:45.074Z,35.79
2023-05-20T13:16:13.855Z,36.76
2023-05-20T13:18:42.328Z,37.81
2023-05-20T13:21:10.305Z,37.27
2023-05-20T13:23:39.019Z,36.25
2023-05-20T13:26:08.317Z,35.66
2023-05-20T13:28:36.812Z,34.53
2023-05-20T13:31:07.449Z,35.60
2023-05-20T13:33:35.389Z,36.24
2023-05-20T13:36:03.395Z,35.75
2023-05-20T13:38:31.899Z,37.22
2023-05-20T13:41:00.667Z,36.90
2023-05-20T13:43:30.641Z,37.89
2023-05-20T13:45:58.645Z,37.64
2023-05-20T13:48:27.157Z,36.26
2023-05-20T13:50:55.246Z,35.99
2023-05-20T13:53:23.775Z,35.77
2023-05-20T13:55:52.432Z,36.35
2023-05-20T13:58:20.526Z,36.19
2023-05-20T14:00:50.079Z,35.09
2023-05-20T14:03:18.657Z,35.23
2023-05-20T14:05:46.720Z,35.19
2023-05-20T14:08:14.750Z,34.79
2023-05-20T14:10:43.416Z,35.17
2023-05-20T14:13:11.270Z,36.59
2023-05-20T14:15:39.198Z,35.30
2023-05-20T14:18:09.043Z,35.84
2023-05-20T14:20:37.641Z,36.25
2023-05-20T14:23:05.912Z,36.65
2023-05-20T14:25:34.426Z,36.69
2023-05-20T14:28:02.499Z,36.52
2023-05-20T14:30:30.274Z,37.06
2023-05-20T14:32:58.783Z,36.84
2023-05-20T14:35:28.369Z,36.07
2023-05-20T14:37:56.418Z,36.60
2023-05-20T14:40:25.155Z,36.04
2023-05-20T14:42:53.199Z,35.95
2023-05-20T14:45:21.565Z,35.14
2023-05-20T14:47:50.115Z,33.97
2023-05-20T14:50:18.240Z,35.07
2023-05-20T14:52:47.590Z,36.00
2023-05-20T14:55:16.188Z,34.86
2023-05-20T14:57:44.657Z,34.17
2023-05-20T15:00:13.914Z,35.20
2023-05-20T15:02:42.711Z,36.40
2023-05-20T15:05:12.212Z,36.10
2023-05-20T15:07:40.452Z,36.71
2023-05-20T15:10:10.963Z,35.50
2023-05-20T15:12:39.166Z,35.49
2023-05-20T15:15:08.022Z,35.06
2023-05-20T15:17:36.755Z,35.28
2023-05-20T15:20:05.521Z,35.33
2023-05-20T15:22:33.642Z,35.73
2023-05-20T15:25:02.386Z,37.10
2023-05-20T15:27:31.797Z,35.99
2023-05-20T15:29:59.655Z,36.52
2023-05-20T15:32:28.175Z,36.39
2023-05-20T15:34:56.208Z,36.07
2023-05-20T15:37:24.180Z,35.56
2023-05-20T15:39:52.865Z,36.12
2023-05-20T15:42:21.602Z,34.43
2023-05-20T15:44:51.164Z,35.10
2023-05-20T15:47:19.954Z,35.98
2023-05-20T15:49:47.999Z,36.19
2023-05-20T15:52:16.270Z,36.40
2023-05-20T15:54:44.692Z,35.51
2023-05-20T15:57:12.656Z,36.29
2023-05-20T15:59:40.623Z,36.33
2023-05-20T16:02:10.442Z,36.25
2023-05-20T16:04:38.662Z,37.67
2023-05-20T16:07:06.890Z,37.71
2023-05-20T16:09:36.165Z,38.35
2023-05-20T16:12:05.315Z,38.60
2023-05-20T16:14:34.182Z,38.06
2023-05-20T16:17:02.583Z,38.10
2023-05-20T16:19:32.229Z,37.89
2023-05-20T16:22:01.845Z,36.58
2023-05-20T16:24:30.107Z,36.96
2023-05-20T16:26:58.354Z,37.76
2023-05-20T16:29:27.024Z,38.94
2023-05-20T16:31:55.850Z,38.01
2023-05-20T16:34:23.973Z,37.60
2023-05-20T16:36:53.935Z,37.95
2023-05-20T16:39:22.008Z,37.52
2023-05-20T16:41:50.168Z,36.32
2023-05-20T16:44:18.984Z,37.24
2023-05-20T16:46:47.261Z,36.59
2023-05-20T16:49:15.631Z,37.41
2023-05-20T16:51:44.026Z,37.94
2023-05-20T16:54:13.797Z,38.26
2023-05-20T16:56:41.970Z,37.30
2023-05-20T16:59:10.645Z,38.03
2023-05-20T17:01:48.660Z,37.95
2023-05-20T17:04:17.592Z,38.81
2023-05-20T17:06:46.021Z,39.34
2023-05-20T17:09:16.249Z,39.47
2023-05-20T17:11:45.141Z,40.51
2023-05-20T17:14:15.483Z,40.92
2023-05-20T17:16:44.339Z,40.85
2023-05-20T17:19:17.372Z,40.85
2023-05-20T17:21:48.302Z,41.72
2023-05-20T17:24:18.544Z,41.72
2023-05-20T17:26:46.784Z,42.60
2023-05-20T17:29:15.692Z,41.82
2023-05-20T17:31:47.830Z,42.58
2023-05-20T17:34:16.192Z,42.90
2023-05-20T17:36:44.216Z,41.28
2023-05-20T17:39:13.120Z,41.10
2023-05-20T17:41:43.581Z,40.86
2023-05-20T17:44:12.004Z,40.99
2023-05-20T17:46:40.756Z,41.79
2023-05-20T17:49:09.037Z,41.76
2023-05-20T17:51:37.514Z,41.09
2023-05-20T17:54:06.696Z,41.55
2023-05-20T17:56:35.326Z,42.77
2023-05-20T17:59:05.025Z,42.41
2023-05-20T18:01:34.200Z,43.08
2023-05-20T18:04:05.652Z,43.49
2023-05-20T18:06:36.105Z,43.79
2023-05-20T18:09:06.120Z,43.48
2023-05-20T18:11:35.627Z,42.89
2023-05-20T18:14:05.050Z,43.63
2023-05-20T18:16:33.495Z,43.96
2023-05-20T18:19:03.023Z,43.94
2023-05-20T18:21:32.397Z,43.99
2023-05-20T18:24:00.375Z,45.20
2023-05-20T18:26:29.003Z,45.48
2023-05-20T18:28:57.256Z,44.84
2023-05-20T18:31:27.107Z,45.61
2023-05-20T18:33:56.029Z,45.80
2023-05-20T18:36:24.383Z,46.67
2023-05-20T18:38:52.443Z,46.26
2023-05-20T18:41:23.543Z,46.41
2023-05-20T18:43:53.489Z,46.31
2023-05-20T18:46:22.223Z,47.46
2023-05-20T18:48:51.907Z,47.28
2023-05-20T18:51:20.246Z,47.85
2023-05-20T18:53:49.520Z,47.89
2023-05-20T18:56:17.902Z,48.64
2023-05-20T18:58:46.439Z,48.76
2023-05-20T19:01:15.164Z,48.81
2023-05-20T19:03:45.083Z,49.31
2023-05-20T19:06:16.987Z,49.12
2023-05-20T19:08:46.109Z,49.00
2023-05-20T19:11:14.513Z,49.62
2023-05-20T19:13:43.028Z,49.95
2023-05-20T19:16:11.376Z,49.94
2023-05-20T19:18:39.560Z,49.57
2023-05-20T19:21:07.687Z,50.53
2023-05-20T19:23:37.440Z,50.59
2023-05-20T19:26:05.669Z,49.69
2023-05-20T19:28:34.439Z,50.40
2023-05-20T19:31:02.755Z,50.96
2023-05-20T19:33:31.395Z,51.35
2023-05-20T19:35:59.789Z,51.57
2023-05-20T19:38:28.026Z,51.42
2023-05-20T19:40:58.288Z,51.62
2023-05-20T19:43:26.660Z,51.11
2023-05-20T19:45:55.228Z,52.04
2023-05-20T19:48:23.948Z,51.48
2023-05-20T19:50:52.264Z,51.98
2023-05-20T19:55:52.669Z,52.02
2023-05-20T19:58:46.041Z,52.45
2023-05-20T20:01:14.623Z,52.25
2023-05-20T20:03:42.802Z,51.93
2023-05-20T20:06:11.369Z,52.65
2023-05-20T20:08:40.813Z,51.92
2023-05-20T20:11:09.240Z,52.22
2023-05-20T20:13:37.455Z,52.32
2023-05-20T20:16:08.030Z,52.52
2023-05-20T20:18:36.124Z,53.19
2023-05-20T20:21:06.105Z,52.35
2023-05-20T20:23:37.097Z,52.54
2023-05-20T20:26:06.376Z,52.16
2023-05-20T20:28:34.601Z,52.33
2023-05-20T20:31:04.588Z,52.39
2023-05-20T20:33:33.799Z,53.15
2023-05-20T20:36:02.534Z,52.55
2023-05-20T20:38:30.863Z,53.35
2023-05-20T20:40:59.411Z,53.18
2023-05-20T20:43:28.944Z,52.52
2023-05-20T20:45:57.690Z,53.21
2023-05-20T20:48:27.110Z,53.17
2023-05-20T20:50:58.107Z,53.11
2023-05-20T20:53:26.593Z,54.16
2023-05-20T20:55:54.532Z,54.36
2023-05-20T20:58:22.769Z,54.03
2023-05-20T21:00:51.025Z,54.73
2023-05-20T21:03:19.107Z,54.74
2023-05-20T21:05:48.589Z,55.34
2023-05-20T21:08:18.276Z,55.56
2023-05-20T21:10:46.377Z,56.03
2023-05-20T21:13:14.375Z,55.83
2023-05-20T21:15:43.448Z,55.54
2023-05-20T21:18:11.499Z,56.56
2023-05-20T21:20:39.607Z,56.13
2023-05-20T21:23:08.150Z,56.83
2023-05-20T21:25:37.897Z,56.86
2023-05-20T21:28:06.391Z,57.59
2023-05-20T21:30:34.897Z,57.52
2023-05-20T21:33:03.192Z,57.47
2023-05-20T21:35:31.223Z,57.20
2023-05-20T21:37:59.702Z,57.96
2023-05-20T21:40:27.660Z,57.55
2023-05-20T21:42:57.052Z,58.03
2023-05-20T21:45:26.804Z,58.13
2023-05-20T21:47:55.298Z,58.46
2023-05-20T21:50:23.487Z,58.40
2023-05-20T21:52:52.096Z,58.42
2023-05-20T21:55:23.403Z,58.67
2023-05-20T21:57:51.660Z,58.32
2023-05-20T22:00:21.809Z,58.08
2023-05-20T22:02:50.809Z,58.68
2023-05-20T22:05:19.896Z,58.25
2023-05-20T22:07:48.626Z,58.65
2023-05-20T22:10:17.690Z,58.41
2023-05-20T22:12:47.480Z,58.59
2023-05-20T22:15:15.803Z,59.38
2023-05-20T22:17:47.477Z,58.61
2023-05-20T22:20:16.185Z,59.52
2023-05-20T22:22:44.223Z,59.00
2023-05-20T22:25:13.241Z,58.88
2023-05-20T22:27:43.114Z,59.53
2023-05-20T22:30:13.048Z,59.76
2023-05-20T22:32:41.580Z,59.15
2023-05-20T22:35:13.526Z,59.24
2023-05-20T22:37:41.860Z,59.03
2023-05-20T22:40:11.257Z,59.47
2023-05-20T22:42:39.691Z,59.18
2023-05-20T22:45:08.953Z,59.89
2023-05-20T22:47:36.832Z,59.88
2023-05-20T22:50:05.986Z,59.15
2023-05-20T22:52:36.791Z,59.44
2023-05-20T22:55:05.181Z,59.15
2023-05-20T22:57:37.438Z,59.85
2023-05-20T23:00:07.818Z,60.54
2023-05-20T23:02:36.426Z,60.93
2023-05-20T23:05:05.561Z,60.40
2023-05-20T23:07:33.409Z,60.27
2023-05-20T23:10:03.214Z,60.76
2023-05-20T23:12:31.307Z,59.62
2023-05-20T23:14:59.787Z,61.03
2023-05-20T23:17:28.084Z,60.42
2023-05-20T23:19:56.015Z,61.22
2023-05-20T23:22:23.888Z,61.65
2023-05-20T23:24:52.289Z,60.63
2023-05-20T23:27:21.995Z,60.98
2023-05-20T23:29:50.395Z,61.66
2023-05-20T23:32:18.997Z,60.51
2023-05-20T23:34:47.647Z,61.94
2023-05-20T23:37:15.808Z,60.96
2023-05-20T23:39:44.225Z,61.09
2023-05-20T23:42:12.372Z,60.56
2023-05-20T23:44:41.772Z,62.17
2023-05-20T23:47:10.225Z,61.79
2023-05-20T23:49:38.286Z,61.85
2023-05-20T23:52:07.393Z,62.36
2023-05-20T23:54:35.492Z,63.08
2023-05-20T23:57:03.542Z,62.10
2023-05-20T23:59:31.949Z,62.60
